Time;durP1;ratioP1;P1;durP2;ratioP2;P2;SDS_P1;SDS_P2;PMS_P1;PMS_P2;Temp;Humidity;BMP_temperature;BMP_pressure;BME280_temperature;BME280_humidity;BME280_pressure;Samples;Min_cycle;Max_cycle;Signal;HPM_P1;HPM_P2
2023/08/28 00:01:57;;;;;;;2.00;0.70;;;21.90;72.30;;;;;;5090851;28;20058;-68
2023/08/28 00:04:24;;;;;;;1.65;0.50;;;21.90;72.30;;;;;;5092487;28;20040;-68
2023/08/28 00:06:50;;;;;;;1.52;0.50;;;21.90;72.30;;;;;;5091697;28;20044;-67
2023/08/28 00:09:16;;;;;;;1.80;0.70;;;21.90;72.30;;;;;;5092621;28;20082;-67
2023/08/28 00:11:42;;;;;;;1.85;0.63;;;21.90;72.30;;;;;;5090013;28;20050;-67
2023/08/28 00:14:08;;;;;;;2.95;0.70;;;21.90;72.30;;;;;;5091108;28;20040;-67
2023/08/28 00:16:33;;;;;;;0.52;0.40;;;21.90;72.30;;;;;;5092089;28;20044;-67
2023/08/28 00:18:59;;;;;;;1.50;0.70;;;21.90;72.30;;;;;;5090223;28;20043;-67
2023/08/28 00:21:25;;;;;;;2.65;0.70;;;21.90;72.30;;;;;;5091190;28;20058;-67
2023/08/28 00:23:50;;;;;;;1.02;0.50;;;21.90;72.30;;;;;;5090826;28;20047;-67
2023/08/28 00:26:16;;;;;;;1.90;0.68;;;21.90;72.30;;;;;;5091665;28;20368;-67
2023/08/28 00:28:42;;;;;;;1.10;0.50;;;21.90;72.20;;;;;;5092134;28;20545;-67
2023/08/28 00:31:07;;;;;;;2.50;0.60;;;21.90;72.20;;;;;;5092345;28;20044;-68
2023/08/28 00:33:33;;;;;;;1.40;0.50;;;21.90;72.30;;;;;;5091561;28;20036;-68
2023/08/28 00:35:59;;;;;;;2.20;0.50;;;21.90;72.30;;;;;;5091809;28;20060;-67
2023/08/28 00:38:24;;;;;;;1.13;0.60;;;21.80;72.10;;;;;;5090797;28;20087;-68
2023/08/28 00:40:50;;;;;;;1.40;0.70;;;21.90;72.20;;;;;;5090175;28;20109;-68
2023/08/28 00:43:15;;;;;;;1.20;0.60;;;21.80;72.10;;;;;;5092368;28;20040;-67
2023/08/28 00:45:42;;;;;;;1.27;0.65;;;21.90;72.20;;;;;;5091699;28;20399;-66
2023/08/28 00:48:10;;;;;;;1.20;0.50;;;21.80;72.10;;;;;;5097542;28;20075;-67
2023/08/28 00:50:37;;;;;;;2.30;0.60;;;21.90;72.20;;;;;;5074296;28;20078;-67
2023/08/28 00:53:03;;;;;;;0.73;0.50;;;21.80;72.10;;;;;;5090838;28;20048;-68
2023/08/28 00:55:30;;;;;;;1.23;0.57;;;21.80;72.20;;;;;;5090348;28;20059;-68
2023/08/28 00:57:55;;;;;;;1.55;0.70;;;21.80;72.10;;;;;;5090745;28;20119;-68
2023/08/28 01:00:21;;;;;;;1.55;0.70;;;21.80;72.20;;;;;;5076671;28;20126;-68
2023/08/28 01:02:47;;;;;;;1.95;0.70;;;21.80;72.10;;;;;;5109556;28;20036;-68
2023/08/28 01:05:12;;;;;;;1.73;0.50;;;21.80;72.10;;;;;;5114903;28;20173;-68
2023/08/28 01:07:51;;;;;;;1.40;0.50;;;21.80;72.30;;;;;;5114122;28;20106;-68
2023/08/28 01:10:27;;;;;;;1.20;0.70;;;21.80;72.10;;;;;;5114978;28;20082;-68
2023/08/28 01:13:13;;;;;;;1.27;0.60;;;21.80;72.10;;;;;;5114403;28;20448;-68
2023/08/28 01:15:38;;;;;;;2.17;0.63;;;21.80;72.10;;;;;;5114943;28;20043;-68
2023/08/28 01:18:04;;;;;;;1.23;0.63;;;21.80;72.20;;;;;;5114609;28;20044;-68
2023/08/28 01:20:30;;;;;;;2.10;0.60;;;21.80;72.10;;;;;;5113950;28;20044;-67
2023/08/28 01:23:04;;;;;;;1.15;0.73;;;21.80;72.20;;;;;;5096663;28;20479;-68
2023/08/28 01:25:30;;;;;;;1.92;0.60;;;21.80;72.20;;;;;;5114427;28;20368;-68
2023/08/28 01:27:56;;;;;;;1.15;0.60;;;21.80;72.10;;;;;;5114098;28;20498;-67
2023/08/28 01:30:21;;;;;;;1.20;0.60;;;21.70;72.10;;;;;;5113437;28;20044;-68
2023/08/28 01:32:47;;;;;;;1.63;0.50;;;21.70;72.10;;;;;;5115331;28;20043;-68
2023/08/28 01:35:17;;;;;;;1.98;0.80;;;21.80;72.20;;;;;;5112924;28;20550;-67
2023/08/28 01:38:11;;;;;;;1.23;0.60;;;21.70;72.10;;;;;;5114112;28;20059;-67
2023/08/28 01:40:44;;;;;;;1.23;0.63;;;21.80;72.10;;;;;;5108831;28;20043;-67
2023/08/28 01:43:11;;;;;;;1.50;0.70;;;21.70;72.10;;;;;;5056071;28;20369;-68
2023/08/28 01:45:37;;;;;;;1.63;0.73;;;21.70;72.10;;;;;;5055949;28;20102;-68
2023/08/28 01:48:04;;;;;;;1.35;0.65;;;21.70;72.10;;;;;;5073611;28;20060;-67
2023/08/28 01:50:29;;;;;;;0.93;0.60;;;21.70;72.70;;;;;;5073972;28;20049;-67
2023/08/28 01:52:55;;;;;;;1.38;0.68;;;21.70;72.10;;;;;;5074104;28;20131;-67
2023/08/28 01:55:44;;;;;;;1.40;0.70;;;21.70;72.10;;;;;;5074172;28;20075;-68
2023/08/28 01:58:09;;;;;;;2.47;0.73;;;21.70;72.10;;;;;;5072793;28;20037;-68
2023/08/28 02:00:35;;;;;;;1.40;0.65;;;21.70;72.10;;;;;;5076822;28;20035;-67
2023/08/28 02:03:01;;;;;;;2.50;0.65;;;21.70;72.10;;;;;;5093099;28;20137;-67
2023/08/28 02:05:26;;;;;;;0.90;0.60;;;21.60;72.60;;;;;;5093134;28;20040;-68
2023/08/28 02:07:52;;;;;;;1.42;0.60;;;21.70;72.10;;;;;;5110107;28;20039;-67
2023/08/28 02:10:17;;;;;;;1.20;0.70;;;21.60;72.00;;;;;;5113612;28;20032;-68
2023/08/28 02:12:43;;;;;;;1.20;0.70;;;21.60;72.00;;;;;;5112019;28;20380;-68
2023/08/28 02:15:09;;;;;;;1.13;0.60;;;21.60;72.00;;;;;;5114467;28;20036;-68
2023/08/28 02:17:35;;;;;;;1.65;0.80;;;21.60;72.00;;;;;;5113309;28;20071;-68
2023/08/28 02:20:00;;;;;;;0.80;0.60;;;21.60;72.00;;;;;;5112554;28;20131;-66
2023/08/28 02:22:26;;;;;;;1.48;0.70;;;21.60;72.00;;;;;;5114712;28;20040;-65
2023/08/28 02:24:51;;;;;;;2.00;0.73;;;21.60;72.00;;;;;;5112872;28;20040;-65
2023/08/28 02:27:17;;;;;;;1.15;0.65;;;21.60;72.00;;;;;;5113235;28;20043;-64
2023/08/28 02:29:43;;;;;;;1.83;0.80;;;21.60;72.00;;;;;;5114033;28;20083;-65
2023/08/28 02:32:08;;;;;;;1.42;0.88;;;21.60;72.00;;;;;;5112536;28;20032;-66
2023/08/28 02:34:34;;;;;;;2.47;0.80;;;21.60;71.90;;;;;;5112440;28;20392;-65
2023/08/28 02:36:59;;;;;;;1.63;0.82;;;21.60;72.00;;;;;;5114113;28;20059;-65
2023/08/28 02:39:25;;;;;;;0.95;0.60;;;21.60;72.00;;;;;;5112275;28;20040;-65
2023/08/28 02:41:50;;;;;;;1.67;0.77;;;21.60;71.90;;;;;;5113864;28;20427;-64
2023/08/28 02:44:16;;;;;;;1.45;0.52;;;21.60;72.00;;;;;;5114186;28;20036;-65
2023/08/28 02:46:41;;;;;;;1.60;0.70;;;21.60;71.90;;;;;;5112748;28;20088;-65
2023/08/28 02:49:07;;;;;;;0.88;0.50;;;21.60;72.00;;;;;;5112679;28;20067;-64
2023/08/28 02:51:33;;;;;;;1.77;0.70;;;21.60;71.90;;;;;;5113833;28;20062;-65
2023/08/28 02:53:58;;;;;;;2.75;0.77;;;21.60;71.90;;;;;;5111840;28;20147;-65
2023/08/28 02:56:25;;;;;;;1.00;0.55;;;21.60;72.00;;;;;;5112768;28;20157;-67
2023/08/28 02:58:52;;;;;;;1.95;0.88;;;21.50;71.90;;;;;;5112315;28;20047;-67
2023/08/28 03:01:19;;;;;;;2.65;0.70;;;21.50;71.90;;;;;;5112913;28;20501;-66
2023/08/28 03:03:45;;;;;;;1.25;0.68;;;21.60;71.90;;;;;;5112191;28;20036;-67
2023/08/28 03:06:11;;;;;;;1.30;0.60;;;21.60;71.90;;;;;;5113648;28;20070;-67
2023/08/28 03:08:36;;;;;;;1.13;0.65;;;21.50;71.90;;;;;;5112452;28;20128;-67
2023/08/28 03:11:02;;;;;;;1.65;0.70;;;21.50;71.80;;;;;;5112589;28;20055;-68
2023/08/28 03:13:27;;;;;;;1.42;0.60;;;21.50;71.90;;;;;;5113426;28;20054;-67
2023/08/28 03:15:53;;;;;;;1.17;0.63;;;21.50;71.80;;;;;;5112428;28;20129;-68
2023/08/28 03:18:19;;;;;;;1.38;0.68;;;21.50;71.90;;;;;;5112104;28;20047;-67
2023/08/28 03:20:44;;;;;;;1.48;0.80;;;21.50;71.90;;;;;;5111792;28;20043;-67
2023/08/28 03:23:10;;;;;;;1.42;0.50;;;21.50;71.90;;;;;;5112038;28;20039;-68
2023/08/28 03:25:36;;;;;;;1.63;0.80;;;21.50;71.90;;;;;;5113188;28;20096;-68
2023/08/28 03:28:02;;;;;;;1.75;0.60;;;21.50;71.90;;;;;;5094968;28;20040;-67
2023/08/28 03:30:28;;;;;;;1.08;0.73;;;21.50;71.90;;;;;;5128446;27;20039;-67
2023/08/28 03:32:53;;;;;;;1.92;1.02;;;21.50;71.90;;;;;;5111504;28;20035;-68
2023/08/28 03:35:19;;;;;;;1.60;0.80;;;21.50;71.90;;;;;;5111119;28;20104;-68
2023/08/28 03:37:45;;;;;;;1.55;0.70;;;21.50;71.90;;;;;;5093697;28;20052;-68
2023/08/28 03:40:11;;;;;;;2.03;0.80;;;21.50;71.90;;;;;;5112174;28;20138;-68
2023/08/28 03:42:36;;;;;;;1.35;0.70;;;21.50;71.90;;;;;;5112264;28;20043;-68
2023/08/28 03:45:02;;;;;;;1.60;0.90;;;21.50;71.90;;;;;;5112386;28;20740;-68
2023/08/28 03:47:28;;;;;;;1.50;0.60;;;21.50;71.90;;;;;;5113329;28;20047;-68
2023/08/28 03:49:53;;;;;;;1.13;0.70;;;21.40;71.80;;;;;;5110769;28;20395;-68
2023/08/28 03:52:19;;;;;;;0.95;0.60;;;21.40;71.80;;;;;;5113003;28;20084;-68
2023/08/28 03:54:45;;;;;;;1.35;0.80;;;21.40;71.80;;;;;;5094818;28;20379;-68
2023/08/28 03:57:11;;;;;;;1.33;0.70;;;21.40;71.80;;;;;;5112276;28;20083;-68
2023/08/28 03:59:36;;;;;;;1.77;0.68;;;21.40;71.80;;;;;;5113083;28;20067;-68
2023/08/28 04:02:02;;;;;;;1.83;0.68;;;21.40;71.90;;;;;;5097000;28;20042;-68
2023/08/28 04:04:27;;;;;;;1.48;0.70;;;21.40;71.80;;;;;;5091800;28;20123;-68
2023/08/28 04:06:53;;;;;;;1.20;0.77;;;21.40;71.80;;;;;;5091658;28;20055;-68
2023/08/28 04:09:20;;;;;;;1.13;0.70;;;21.40;71.80;;;;;;5092602;28;20044;-68
2023/08/28 04:11:45;;;;;;;2.00;0.82;;;21.40;71.90;;;;;;5090288;28;20044;-68
2023/08/28 04:14:11;;;;;;;1.33;0.80;;;21.40;71.90;;;;;;5092454;28;20119;-68
2023/08/28 04:16:36;;;;;;;1.52;0.73;;;21.40;71.80;;;;;;5092089;28;20486;-68
2023/08/28 04:19:02;;;;;;;2.53;0.80;;;21.40;71.80;;;;;;5090865;28;20144;-68
2023/08/28 04:21:28;;;;;;;1.15;0.65;;;21.40;71.80;;;;;;5090836;28;20470;-65
2023/08/28 04:23:54;;;;;;;1.77;0.80;;;21.40;71.80;;;;;;5092399;28;20056;-65
2023/08/28 04:26:19;;;;;;;1.98;0.90;;;21.40;71.80;;;;;;5091541;28;20135;-65
2023/08/28 04:28:45;;;;;;;1.40;0.70;;;21.40;71.80;;;;;;5090566;28;20044;-67
2023/08/28 04:31:12;;;;;;;1.13;0.55;;;21.40;71.80;;;;;;5092256;28;20116;-67
2023/08/28 04:33:38;;;;;;;1.27;0.60;;;21.40;71.80;;;;;;5090593;28;20044;-67
2023/08/28 04:36:03;;;;;;;1.58;0.80;;;21.40;71.80;;;;;;5095752;28;20063;-67
2023/08/28 04:38:29;;;;;;;1.58;0.80;;;21.40;71.80;;;;;;5095099;28;20051;-67
2023/08/28 04:40:55;;;;;;;1.15;0.80;;;21.40;71.80;;;;;;5095320;28;20051;-67
2023/08/28 04:43:20;;;;;;;0.98;0.80;;;21.30;71.80;;;;;;5096129;28;20039;-67
2023/08/28 04:45:48;;;;;;;1.20;0.52;;;21.40;71.80;;;;;;5095169;28;20383;-67
2023/08/28 04:48:14;;;;;;;1.65;0.80;;;21.30;71.80;;;;;;5077579;28;20051;-67
2023/08/28 04:50:40;;;;;;;1.60;0.80;;;21.30;71.80;;;;;;5094378;28;20048;-67
2023/08/28 04:53:06;;;;;;;1.08;0.63;;;21.40;71.80;;;;;;5095204;28;20201;-67
2023/08/28 04:55:31;;;;;;;1.23;0.70;;;21.30;71.80;;;;;;5093971;28;20131;-67
2023/08/28 04:57:57;;;;;;;1.27;0.77;;;21.30;71.80;;;;;;5095360;28;20036;-67
2023/08/28 05:00:23;;;;;;;1.50;0.80;;;21.30;71.80;;;;;;5093844;28;20512;-67
2023/08/28 05:02:48;;;;;;;1.95;0.82;;;21.30;71.80;;;;;;5094479;28;20044;-67
2023/08/28 05:05:14;;;;;;;1.38;0.70;;;21.30;71.80;;;;;;5094511;28;20135;-67
2023/08/28 05:07:39;;;;;;;1.77;0.90;;;21.30;71.80;;;;;;5094036;28;20078;-67
2023/08/28 05:10:05;;;;;;;1.83;0.90;;;21.30;71.80;;;;;;5095746;28;20430;-67
2023/08/28 05:12:31;;;;;;;1.08;0.80;;;21.30;71.90;;;;;;5095522;28;20046;-67
2023/08/28 05:14:56;;;;;;;1.88;0.93;;;21.30;71.80;;;;;;5094250;28;20487;-68
2023/08/28 05:17:22;;;;;;;1.35;0.70;;;21.30;71.90;;;;;;5095388;28;20474;-67
2023/08/28 05:19:48;;;;;;;1.50;0.85;;;21.30;71.80;;;;;;5093952;28;20055;-67
2023/08/28 05:22:13;;;;;;;2.92;0.93;;;21.30;71.80;;;;;;5094367;28;20486;-67
2023/08/28 05:24:40;;;;;;;1.27;0.70;;;21.30;71.80;;;;;;5095373;28;20044;-67
2023/08/28 05:27:05;;;;;;;1.33;0.82;;;21.30;71.80;;;;;;5095035;28;20039;-67
2023/08/28 05:29:31;;;;;;;1.30;0.70;;;21.30;71.80;;;;;;5094401;28;20123;-67
2023/08/28 05:31:56;;;;;;;1.63;0.70;;;21.30;71.90;;;;;;5094854;28;20032;-67
2023/08/28 05:34:22;;;;;;;1.80;0.80;;;21.30;71.90;;;;;;5095017;28;20456;-67
2023/08/28 05:36:47;;;;;;;1.73;0.90;;;21.30;71.90;;;;;;5092469;28;20051;-67
2023/08/28 05:39:13;;;;;;;1.13;0.85;;;21.30;71.80;;;;;;5088612;28;20578;-63
2023/08/28 05:41:39;;;;;;;1.20;0.75;;;21.30;71.90;;;;;;5078356;28;20032;-65
2023/08/28 05:44:04;;;;;;;1.90;0.90;;;21.30;72.50;;;;;;5070853;28;20093;-65
2023/08/28 05:46:30;;;;;;;4.10;1.00;;;21.30;71.90;;;;;;5055547;28;20052;-65
2023/08/28 05:48:55;;;;;;;2.08;1.00;;;21.30;71.90;;;;;;5085125;28;20518;-66
2023/08/28 05:51:21;;;;;;;1.50;0.93;;;21.30;71.90;;;;;;5092897;28;20451;-65
2023/08/28 05:53:47;;;;;;;2.88;1.10;;;21.30;72.00;;;;;;5092518;28;20123;-65
2023/08/28 05:56:12;;;;;;;2.13;1.10;;;21.30;72.00;;;;;;5092802;28;20048;-65
2023/08/28 05:58:38;;;;;;;2.15;0.73;;;21.30;72.10;;;;;;5094242;28;20040;-66
2023/08/28 06:01:04;;;;;;;2.88;0.90;;;21.30;72.30;;;;;;5093384;28;20090;-64
2023/08/28 06:03:29;;;;;;;4.97;1.45;;;21.30;72.50;;;;;;5090379;28;20047;-65
2023/08/28 06:05:55;;;;;;;4.22;1.20;;;21.30;72.50;;;;;;5092999;28;20052;-64
2023/08/28 06:08:20;;;;;;;3.20;1.08;;;21.40;72.60;;;;;;5094335;28;20580;-63
2023/08/28 06:10:46;;;;;;;5.68;1.13;;;21.30;72.50;;;;;;5093086;28;20115;-65
2023/08/28 06:13:12;;;;;;;3.67;1.13;;;21.40;72.50;;;;;;5092958;28;20047;-65
2023/08/28 06:15:37;;;;;;;3.53;1.50;;;21.40;72.50;;;;;;5093786;28;20492;-65
2023/08/28 06:18:04;;;;;;;2.95;1.40;;;21.40;72.50;;;;;;5087706;28;20732;-65
2023/08/28 06:20:30;;;;;;;6.90;1.58;;;21.40;72.40;;;;;;5079884;28;20032;-66
2023/08/28 06:22:56;;;;;;;3.80;1.33;;;21.40;72.40;;;;;;5071324;28;20051;-65
2023/08/28 06:25:22;;;;;;;4.90;1.25;;;21.40;72.40;;;;;;5071079;28;20040;-65
2023/08/28 06:27:48;;;;;;;4.00;1.20;;;21.40;72.40;;;;;;5072933;28;20050;-66
2023/08/28 06:30:13;;;;;;;3.65;1.48;;;21.40;72.30;;;;;;5077519;28;20119;-65
2023/08/28 06:32:39;;;;;;;6.47;1.35;;;21.40;72.20;;;;;;5091589;28;20406;-67
2023/08/28 06:35:05;;;;;;;4.30;1.30;;;21.40;72.20;;;;;;5098992;28;20044;-65
2023/08/28 06:37:31;;;;;;;6.55;2.25;;;21.40;72.20;;;;;;5086720;28;20048;-66
2023/08/28 06:39:57;;;;;;;3.97;1.65;;;21.40;72.10;;;;;;5092607;28;20036;-61
2023/08/28 06:42:22;;;;;;;7.50;1.70;;;21.40;72.00;;;;;;5093825;28;20131;-63
2023/08/28 06:44:48;;;;;;;8.18;2.17;;;21.40;72.00;;;;;;5092658;28;20059;-63
2023/08/28 06:47:13;;;;;;;4.40;1.70;;;21.40;72.10;;;;;;5093308;28;20048;-64
2023/08/28 06:49:39;;;;;;;10.18;1.70;;;21.40;72.00;;;;;;5102152;28;20086;-64
2023/08/28 06:52:05;;;;;;;6.30;1.60;;;21.40;72.00;;;;;;5114146;28;20044;-64
2023/08/28 06:54:32;;;;;;;8.25;2.10;;;21.40;72.10;;;;;;5113508;28;20122;-64
2023/08/28 06:56:58;;;;;;;6.77;1.83;;;21.40;72.10;;;;;;5111642;28;20044;-64
2023/08/28 06:59:24;;;;;;;7.70;1.65;;;21.40;72.10;;;;;;5097505;28;20035;-64
2023/08/28 07:01:50;;;;;;;7.07;1.80;;;21.40;72.10;;;;;;5093070;28;20178;-64
2023/08/28 07:04:15;;;;;;;5.60;1.58;;;21.40;72.10;;;;;;5093435;28;20117;-64
2023/08/28 07:06:41;;;;;;;5.15;1.58;;;21.40;72.10;;;;;;5098371;28;20050;-64
2023/08/28 07:09:06;;;;;;;6.40;1.67;;;21.40;72.10;;;;;;5113706;28;20032;-64
2023/08/28 07:11:32;;;;;;;5.70;1.70;;;21.40;72.10;;;;;;5112540;28;20169;-64
2023/08/28 07:13:58;;;;;;;7.07;1.88;;;21.40;72.10;;;;;;5110953;28;20042;-64
2023/08/28 07:16:24;;;;;;;5.30;1.48;;;21.40;72.10;;;;;;5111996;28;20111;-64
2023/08/28 07:18:49;;;;;;;7.10;1.95;;;21.40;72.20;;;;;;5112287;28;20085;-64
2023/08/28 07:21:15;;;;;;;6.10;1.67;;;21.40;72.20;;;;;;5110816;28;20058;-63
2023/08/28 07:23:41;;;;;;;5.85;1.58;;;21.40;72.10;;;;;;5091579;28;20062;-64
2023/08/28 07:26:07;;;;;;;4.28;1.80;;;21.40;72.20;;;;;;5093113;28;20063;-65
2023/08/28 07:28:33;;;;;;;5.22;1.48;;;21.40;72.20;;;;;;5092151;28;20484;-64
2023/08/28 07:31:01;;;;;;;5.35;1.52;;;21.40;72.10;;;;;;5108877;28;20115;-64
2023/08/28 07:33:26;;;;;;;7.97;1.98;;;21.40;72.10;;;;;;5113209;28;20047;-64
2023/08/28 07:35:52;;;;;;;4.43;1.60;;;21.40;72.10;;;;;;5110943;28;20152;-65
2023/08/28 07:38:18;;;;;;;5.75;1.70;;;21.40;72.10;;;;;;5113112;28;20475;-64
2023/08/28 07:40:47;;;;;;;3.58;1.20;;;21.50;72.20;;;;;;5111738;28;20039;-64
2023/08/28 07:43:13;;;;;;;6.28;1.52;;;21.40;72.10;;;;;;5111207;28;20035;-64
2023/08/28 07:45:39;;;;;;;4.05;1.38;;;21.50;72.20;;;;;;5112982;28;20035;-64
2023/08/28 07:48:05;;;;;;;4.50;1.42;;;21.50;72.10;;;;;;5113399;28;20127;-65
2023/08/28 07:50:30;;;;;;;4.57;1.60;;;21.50;72.20;;;;;;5111696;28;20054;-64
2023/08/28 07:52:59;;;;;;;3.22;1.25;;;21.50;72.10;;;;;;5095960;28;20056;-64
2023/08/28 07:55:24;;;;;;;3.33;1.08;;;21.50;72.10;;;;;;5095148;28;20472;-65
2023/08/28 07:57:51;;;;;;;3.35;1.35;;;21.50;72.20;;;;;;5112031;28;20073;-65
2023/08/28 08:00:20;;;;;;;3.58;1.38;;;21.50;72.10;;;;;;5113123;28;20100;-65
2023/08/28 08:02:46;;;;;;;2.78;1.15;;;21.60;72.20;;;;;;5112198;28;20051;-65
2023/08/28 08:05:11;;;;;;;3.38;1.25;;;21.60;72.20;;;;;;5112887;28;20077;-65
2023/08/28 08:07:40;;;;;;;3.80;1.38;;;21.60;72.20;;;;;;5111469;28;20497;-64
2023/08/28 08:10:08;;;;;;;4.78;1.40;;;21.60;72.10;;;;;;5116512;28;20040;-65
2023/08/28 08:12:33;;;;;;;5.80;1.20;;;21.60;72.10;;;;;;5115720;28;20055;-65
2023/08/28 08:14:59;;;;;;;3.42;1.23;;;21.60;72.10;;;;;;5114011;28;20043;-65
2023/08/28 08:17:24;;;;;;;1.95;1.15;;;21.70;72.20;;;;;;5096013;28;20048;-65
2023/08/28 08:19:50;;;;;;;5.80;1.83;;;21.70;72.20;;;;;;5096451;28;20046;-65
2023/08/28 08:22:16;;;;;;;4.47;1.35;;;21.70;72.20;;;;;;5096748;28;20048;-65
2023/08/28 08:24:41;;;;;;;5.90;1.35;;;21.70;72.20;;;;;;5095637;28;20042;-65
2023/08/28 08:27:07;;;;;;;3.60;1.30;;;21.70;72.20;;;;;;5096461;28;20127;-65
2023/08/28 08:29:32;;;;;;;4.38;1.30;;;21.80;72.30;;;;;;5096481;28;20039;-65
2023/08/28 08:31:58;;;;;;;3.15;1.33;;;21.80;72.20;;;;;;5095184;28;20040;-65
2023/08/28 08:34:23;;;;;;;5.05;1.17;;;21.80;72.20;;;;;;5096141;28;20509;-65
2023/08/28 08:36:49;;;;;;;2.75;1.10;;;21.80;72.20;;;;;;5100842;28;20047;-65
2023/08/28 08:39:15;;;;;;;3.20;1.25;;;21.90;72.20;;;;;;5115914;28;20047;-65
2023/08/28 08:41:41;;;;;;;3.20;1.20;;;21.80;72.10;;;;;;5114948;28;20126;-65
2023/08/28 08:44:07;;;;;;;1.77;0.88;;;21.90;72.20;;;;;;5116215;28;20490;-65
2023/08/28 08:46:33;;;;;;;3.70;1.20;;;21.90;72.10;;;;;;5095072;28;20046;-64
2023/08/28 08:49:00;;;;;;;3.67;1.20;;;21.90;72.20;;;;;;5114463;28;20131;-64
2023/08/28 08:51:25;;;;;;;4.25;1.17;;;21.90;72.10;;;;;;5107503;28;20593;-64
2023/08/28 08:54:09;;;;;;;2.70;1.10;;;21.90;72.10;;;;;;5093710;28;20119;-65
2023/08/28 08:56:35;;;;;;;5.10;1.20;;;21.90;72.00;;;;;;5094184;28;20050;-65
2023/08/28 08:59:00;;;;;;;4.35;1.20;;;21.90;72.10;;;;;;5094028;28;20127;-65
2023/08/28 09:01:26;;;;;;;4.32;1.20;;;21.90;72.20;;;;;;5094588;28;20083;-65
2023/08/28 09:03:51;;;;;;;3.35;1.52;;;21.90;72.20;;;;;;5095789;28;20059;-65
2023/08/28 09:06:17;;;;;;;3.33;1.10;;;21.90;72.20;;;;;;5096913;28;20048;-65
2023/08/28 09:08:43;;;;;;;5.70;1.15;;;21.90;72.70;;;;;;5097422;28;20085;-65
2023/08/28 09:11:08;;;;;;;3.80;1.35;;;21.90;72.20;;;;;;5115171;28;20047;-65
2023/08/28 09:13:41;;;;;;;2.45;0.75;;;21.90;72.20;;;;;;5114818;28;20079;-64
2023/08/28 09:16:07;;;;;;;3.53;1.00;;;21.90;72.20;;;;;;5114558;28;20039;-65
2023/08/28 09:18:32;;;;;;;2.28;0.90;;;21.90;72.20;;;;;;5114853;28;20050;-65
2023/08/28 09:21:28;;;;;;;3.85;1.13;;;21.90;72.20;;;;;;5114056;28;20036;-65
2023/08/28 09:23:54;;;;;;;2.92;1.00;;;21.90;72.20;;;;;;5080254;28;20112;-64
2023/08/28 09:26:21;;;;;;;1.48;0.80;;;21.90;72.20;;;;;;5115656;28;20036;-65
2023/08/28 09:29:22;;;;;;;2.10;0.90;;;21.90;72.20;;;;;;5114592;28;20067;-64
2023/08/28 09:31:47;;;;;;;3.28;1.08;;;21.90;72.20;;;;;;5052386;28;20045;-65
2023/08/28 09:34:13;;;;;;;2.58;0.90;;;21.90;72.20;;;;;;5097027;28;20051;-65
2023/08/28 09:36:42;;;;;;;2.83;0.80;;;21.90;72.20;;;;;;5096736;28;20570;-64
2023/08/28 09:39:07;;;;;;;2.80;1.00;;;21.90;72.20;;;;;;5115544;28;20039;-65
2023/08/28 09:41:48;;;;;;;3.25;0.93;;;21.90;72.20;;;;;;5113319;28;20054;-65
2023/08/28 09:44:15;;;;;;;4.45;1.17;;;22.00;72.30;;;;;;5113984;28;20050;-65
2023/08/28 09:46:42;;;;;;;5.30;0.90;;;22.00;72.30;;;;;;5115172;28;20589;-65
2023/08/28 09:49:08;;;;;;;1.92;0.90;;;22.00;72.30;;;;;;5113188;28;20040;-64
2023/08/28 09:51:41;;;;;;;2.05;0.75;;;22.00;72.20;;;;;;5114843;28;20054;-64
2023/08/28 09:54:08;;;;;;;2.28;0.82;;;22.00;72.20;;;;;;5115439;27;20062;-65
2023/08/28 09:56:33;;;;;;;3.13;0.90;;;22.00;72.20;;;;;;5114349;28;20130;-65
2023/08/28 09:59:01;;;;;;;3.05;0.98;;;22.00;72.20;;;;;;5115093;28;20067;-65
2023/08/28 10:01:29;;;;;;;3.40;0.90;;;22.00;72.20;;;;;;5113556;28;20115;-64
2023/08/28 10:03:55;;;;;;;2.50;0.88;;;22.00;72.20;;;;;;5113019;28;20040;-65
2023/08/28 10:06:21;;;;;;;1.63;0.88;;;22.00;72.10;;;;;;5111280;28;20437;-64
2023/08/28 10:08:46;;;;;;;2.60;1.00;;;22.00;72.10;;;;;;5093043;28;20086;-64
2023/08/28 10:11:13;;;;;;;3.45;0.90;;;22.00;72.20;;;;;;5092510;28;20044;-65
2023/08/28 10:13:38;;;;;;;2.45;1.00;;;22.00;72.20;;;;;;5092918;28;20081;-65
2023/08/28 10:16:11;;;;;;;2.35;0.98;;;22.00;72.20;;;;;;5094707;28;20040;-64
2023/08/28 10:18:44;;;;;;;2.35;0.90;;;22.10;72.20;;;;;;5093495;28;20032;-64
2023/08/28 10:21:10;;;;;;;1.65;0.70;;;22.10;72.20;;;;;;5093334;28;20048;-64
2023/08/28 10:23:36;;;;;;;1.27;0.70;;;22.10;72.20;;;;;;5092272;28;20395;-64
2023/08/28 10:26:01;;;;;;;2.75;0.95;;;22.10;72.20;;;;;;5094170;28;20040;-65
2023/08/28 10:28:28;;;;;;;2.00;0.70;;;22.00;72.10;;;;;;5093067;28;20040;-64
2023/08/28 10:30:53;;;;;;;1.73;1.00;;;22.00;72.20;;;;;;5091823;28;20121;-64
2023/08/28 10:33:22;;;;;;;1.92;0.85;;;22.00;72.20;;;;;;5093018;28;20044;-65
2023/08/28 10:35:52;;;;;;;1.83;0.82;;;22.00;72.30;;;;;;5092290;28;20098;-64
2023/08/28 10:38:21;;;;;;;2.10;0.68;;;22.00;72.30;;;;;;5100817;28;20380;-64
2023/08/28 10:40:51;;;;;;;1.50;0.88;;;22.00;72.30;;;;;;5112639;28;20500;-64
2023/08/28 10:43:18;;;;;;;2.63;0.85;;;22.10;72.40;;;;;;5093484;28;20402;-64
2023/08/28 10:45:43;;;;;;;4.63;1.10;;;22.10;72.30;;;;;;5091546;28;20153;-64
2023/08/28 10:48:09;;;;;;;1.65;0.75;;;22.10;72.30;;;;;;5093082;28;20500;-64
2023/08/28 10:50:38;;;;;;;2.58;1.00;;;22.10;72.30;;;;;;5093712;28;20498;-64
2023/08/28 10:53:04;;;;;;;2.53;1.20;;;22.10;72.30;;;;;;5091542;28;20044;-64
2023/08/28 10:55:30;;;;;;;2.90;1.10;;;22.20;72.30;;;;;;5093474;28;20036;-64
2023/08/28 10:57:55;;;;;;;1.70;0.90;;;22.20;72.30;;;;;;5091822;28;20043;-64
2023/08/28 11:00:22;;;;;;;1.73;0.90;;;22.20;72.20;;;;;;5091518;28;20036;-64
2023/08/28 11:03:09;;;;;;;1.50;0.80;;;22.20;72.20;;;;;;5093283;28;20109;-64
2023/08/28 11:05:37;;;;;;;2.38;1.00;;;22.20;72.10;;;;;;5092276;28;20062;-64
2023/08/28 11:08:07;;;;;;;2.03;0.90;;;22.20;72.10;;;;;;5108865;28;20044;-64
2023/08/28 11:10:33;;;;;;;1.88;0.63;;;22.20;72.70;;;;;;5112339;28;20044;-64
2023/08/28 11:13:03;;;;;;;2.65;0.75;;;22.20;72.10;;;;;;5112762;28;20077;-64
2023/08/28 11:15:29;;;;;;;1.10;0.70;;;22.20;72.10;;;;;;5113703;28;20104;-64
2023/08/28 11:18:20;;;;;;;1.27;0.70;;;22.20;72.10;;;;;;5113139;28;20399;-64
2023/08/28 11:21:06;;;;;;;2.28;0.82;;;22.20;72.10;;;;;;5112626;28;20040;-64
2023/08/28 11:23:35;;;;;;;3.33;0.80;;;22.20;72.00;;;;;;5113706;28;20165;-64
2023/08/28 11:26:22;;;;;;;1.15;0.75;;;22.20;72.00;;;;;;5113449;28;20047;-64
2023/08/28 11:28:48;;;;;;;1.77;0.70;;;22.30;72.10;;;;;;5101029;28;20062;-64
2023/08/28 11:31:14;;;;;;;1.20;0.60;;;22.30;72.10;;;;;;5112677;28;20055;-64
2023/08/28 11:33:41;;;;;;;1.98;0.82;;;22.30;72.10;;;;;;5129029;27;20047;-64
2023/08/28 11:36:08;;;;;;;2.10;0.95;;;22.30;72.10;;;;;;5111453;28;20059;-64
2023/08/28 11:38:33;;;;;;;2.20;0.80;;;22.30;72.10;;;;;;5113039;28;20039;-64
2023/08/28 11:41:04;;;;;;;1.38;0.70;;;22.30;72.00;;;;;;5112756;28;20092;-64
2023/08/28 11:43:32;;;;;;;2.42;0.63;;;22.30;72.00;;;;;;5111665;28;20044;-64
2023/08/28 11:45:58;;;;;;;1.52;0.77;;;22.40;71.90;;;;;;5111805;28;20035;-63
2023/08/28 11:48:24;;;;;;;1.52;0.63;;;22.40;71.90;;;;;;5112580;28;20044;-64
2023/08/28 11:50:57;;;;;;;1.25;0.52;;;22.40;71.90;;;;;;5113140;28;20372;-64
2023/08/28 11:53:49;;;;;;;1.70;0.75;;;22.40;71.80;;;;;;5111863;28;20077;-64
2023/08/28 11:56:14;;;;;;;1.55;0.80;;;22.40;71.70;;;;;;5109448;28;20055;-65
2023/08/28 11:58:40;;;;;;;1.15;0.60;;;22.40;71.80;;;;;;5112668;28;20051;-64
2023/08/28 12:01:08;;;;;;;2.67;0.70;;;22.40;71.70;;;;;;5111864;28;20428;-64
2023/08/28 12:03:36;;;;;;;1.20;0.60;;;22.40;71.70;;;;;;5098273;28;20479;-64
2023/08/28 12:06:07;;;;;;;1.75;0.70;;;22.40;71.70;;;;;;5091519;28;20040;-63
2023/08/28 12:08:36;;;;;;;1.60;0.70;;;22.40;71.70;;;;;;5092900;28;20123;-64
2023/08/28 12:11:09;;;;;;;1.20;0.68;;;22.40;71.70;;;;;;5091867;28;20056;-64
2023/08/28 12:13:36;;;;;;;2.30;0.70;;;22.50;71.80;;;;;;5091089;28;20073;-64
2023/08/28 12:16:15;;;;;;;1.50;0.65;;;22.50;71.80;;;;;;5091922;28;20127;-64
2023/08/28 12:18:49;;;;;;;1.67;0.70;;;22.50;71.80;;;;;;5091313;28;20055;-64
2023/08/28 12:21:15;;;;;;;1.83;0.55;;;22.50;71.70;;;;;;5092610;28;20036;-64
2023/08/28 12:23:51;;;;;;;1.33;0.60;;;22.50;71.70;;;;;;5091561;28;20055;-64
2023/08/28 12:26:18;;;;;;;2.10;0.70;;;22.50;71.60;;;;;;5092519;28;20055;-64
2023/08/28 12:28:44;;;;;;;2.22;0.70;;;22.50;71.60;;;;;;5092258;28;20044;-64
2023/08/28 12:31:10;;;;;;;1.98;0.65;;;22.50;71.60;;;;;;5091754;28;20032;-64
2023/08/28 12:33:42;;;;;;;1.73;0.70;;;22.50;71.50;;;;;;5092173;28;20047;-64
2023/08/28 12:36:08;;;;;;;1.83;0.70;;;22.50;71.50;;;;;;5092292;28;20051;-64
2023/08/28 12:38:49;;;;;;;1.50;0.70;;;22.50;71.50;;;;;;5091406;28;20036;-64
2023/08/28 12:41:15;;;;;;;1.70;0.60;;;22.50;71.50;;;;;;5091031;28;20147;-64
2023/08/28 12:43:41;;;;;;;1.20;0.60;;;22.50;71.50;;;;;;5073691;28;20089;-64
2023/08/28 12:46:06;;;;;;;1.75;0.60;;;22.50;71.60;;;;;;5091340;28;20141;-64
2023/08/28 12:48:32;;;;;;;1.50;0.52;;;22.50;71.60;;;;;;5090996;28;20052;-64